Time;durP1;ratioP1;P1;durP2;ratioP2;P2;SDS_P1;SDS_P2;PMS_P1;PMS_P2;Temp;Humidity;BMP_temperature;BMP_pressure;BME280_temperature;BME280_humidity;BME280_pressure;Samples;Min_cycle;Max_cycle;Signal;HPM_P1;HPM_P2
2024/04/01 00:01:02;;;;;;;6.65;3.90;;;10.30;99.90;;;;;;5044435;28;20132;-85
2024/04/01 00:03:28;;;;;;;6.95;3.70;;;10.20;99.90;;;;;;5067496;28;20064;-84
2024/04/01 00:05:59;;;;;;;5.90;3.97;;;10.20;99.90;;;;;;5063511;28;20036;-84
2024/04/01 00:08:25;;;;;;;5.85;3.95;;;10.20;99.90;;;;;;5055004;28;20062;-85
2024/04/01 00:10:52;;;;;;;7.10;4.10;;;10.10;99.90;;;;;;5060969;28;20513;-87
2024/04/01 00:13:19;;;;;;;5.25;3.88;;;10.10;99.90;;;;;;5051207;28;20063;-86
2024/04/01 00:15:45;;;;;;;6.75;3.80;;;10.00;99.90;;;;;;5050220;28;20045;-87
2024/04/01 00:18:11;;;;;;;5.55;3.85;;;10.00;99.90;;;;;;5064793;28;20382;-86
2024/04/01 00:20:38;;;;;;;5.38;3.72;;;10.00;99.90;;;;;;5064391;28;20491;-86
2024/04/01 00:23:05;;;;;;;5.78;4.10;;;9.90;99.90;;;;;;5046992;28;20082;-87
2024/04/01 00:25:31;;;;;;;6.35;3.83;;;9.90;99.90;;;;;;5052382;28;20040;-80
2024/04/01 00:28:01;;;;;;;5.20;3.67;;;9.90;99.90;;;;;;5070188;28;20046;-80
2024/04/01 00:30:31;;;;;;;5.78;3.92;;;9.90;99.90;;;;;;5051023;28;20048;-80
2024/04/01 00:32:56;;;;;;;5.95;4.28;;;9.90;99.90;;;;;;5015632;28;20045;-80
2024/04/01 00:35:22;;;;;;;6.03;3.83;;;9.80;99.90;;;;;;5024789;28;20526;-80
2024/04/01 00:37:49;;;;;;;5.07;3.85;;;9.90;99.90;;;;;;5044776;28;20044;-80
2024/04/01 00:40:15;;;;;;;6.35;4.28;;;9.90;99.90;;;;;;5041181;28;20136;-80
2024/04/01 00:42:41;;;;;;;7.40;4.45;;;9.80;99.90;;;;;;5038476;28;20049;-80
2024/04/01 00:45:09;;;;;;;5.32;4.05;;;9.80;99.90;;;;;;5049117;28;20044;-80
2024/04/01 00:47:35;;;;;;;6.15;4.70;;;9.90;99.90;;;;;;5052761;28;20404;-80
2024/04/01 00:50:02;;;;;;;7.90;4.25;;;9.90;99.90;;;;;;5038602;28;20044;-80
2024/04/01 00:52:28;;;;;;;4.95;3.38;;;9.90;99.90;;;;;;5048403;28;20051;-80
2024/04/01 00:54:56;;;;;;;6.55;4.20;;;9.90;99.90;;;;;;5028591;28;20051;-80
2024/04/01 00:57:23;;;;;;;4.82;3.10;;;9.90;99.90;;;;;;5040842;28;20454;-80
2024/04/01 00:59:52;;;;;;;5.82;3.40;;;9.90;99.90;;;;;;5016672;28;20045;-80
2024/04/01 01:02:19;;;;;;;5.43;3.53;;;9.80;99.90;;;;;;5042999;28;20040;-80
2024/04/01 01:04:46;;;;;;;5.82;3.83;;;9.80;99.90;;;;;;5045001;28;20036;-80
2024/04/01 01:07:13;;;;;;;5.35;3.47;;;9.80;99.90;;;;;;5051458;28;20079;-80
2024/04/01 01:09:40;;;;;;;6.47;4.30;;;9.80;99.90;;;;;;5034466;28;20403;-80
2024/04/01 01:12:06;;;;;;;7.43;4.50;;;9.70;99.90;;;;;;5041645;28;20048;-80
2024/04/01 01:14:32;;;;;;;6.03;4.05;;;9.70;99.90;;;;;;5041960;28;20109;-80
2024/04/01 01:16:58;;;;;;;5.32;3.90;;;9.70;99.90;;;;;;5038461;28;20048;-80
2024/04/01 01:19:27;;;;;;;4.95;3.55;;;9.70;99.90;;;;;;5046020;28;20049;-80
2024/04/01 01:22:04;;;;;;;5.80;3.70;;;9.70;99.90;;;;;;5071219;28;20047;-80
2024/04/01 01:24:32;;;;;;;5.80;3.80;;;9.70;99.90;;;;;;5059843;28;20530;-80
2024/04/01 01:27:01;;;;;;;5.85;3.95;;;9.60;99.90;;;;;;5043622;28;20053;-80
2024/04/01 01:29:29;;;;;;;6.03;3.75;;;9.60;99.90;;;;;;5051328;28;20041;-80
2024/04/01 01:32:00;;;;;;;6.55;4.30;;;9.60;99.90;;;;;;5041343;28;20056;-80
2024/04/01 01:34:28;;;;;;;6.65;3.80;;;9.60;99.90;;;;;;5051512;28;20072;-80
2024/04/01 01:36:56;;;;;;;5.68;3.50;;;9.60;99.90;;;;;;5061701;28;20088;-80
2024/04/01 01:39:22;;;;;;;5.82;3.75;;;9.60;99.90;;;;;;5059477;28;20048;-80
2024/04/01 01:41:48;;;;;;;5.97;3.38;;;9.60;99.90;;;;;;5038188;28;20041;-80
2024/04/01 01:44:14;;;;;;;6.40;3.72;;;9.60;99.90;;;;;;5041658;28;20531;-80
2024/04/01 01:46:40;;;;;;;5.50;3.53;;;9.60;99.90;;;;;;5037837;28;20045;-80
2024/04/01 01:49:06;;;;;;;5.63;3.78;;;9.60;99.90;;;;;;5044552;28;20094;-80
2024/04/01 01:51:32;;;;;;;4.82;3.38;;;9.60;99.90;;;;;;5041361;28;20040;-80
2024/04/01 01:53:58;;;;;;;5.95;3.35;;;9.60;99.90;;;;;;5053060;28;20570;-80
2024/04/01 01:56:24;;;;;;;5.22;3.50;;;9.60;99.90;;;;;;5054656;28;20052;-80
2024/04/01 01:58:50;;;;;;;5.53;3.60;;;9.60;99.90;;;;;;5060220;28;20044;-80
2024/04/01 02:01:16;;;;;;;4.75;3.55;;;9.60;99.90;;;;;;5047324;28;20063;-80
2024/04/01 02:03:44;;;;;;;6.88;3.35;;;9.60;99.90;;;;;;5071117;28;20068;-80
2024/04/01 02:06:11;;;;;;;4.20;2.88;;;9.60;99.90;;;;;;5026061;28;20039;-80
2024/04/01 02:08:37;;;;;;;4.35;3.05;;;9.60;99.90;;;;;;5041236;28;20044;-80
2024/04/01 02:11:03;;;;;;;5.90;2.45;;;9.60;99.90;;;;;;5042171;28;20041;-80
2024/04/01 02:13:29;;;;;;;4.55;2.80;;;9.60;99.90;;;;;;5054543;28;20040;-80
2024/04/01 02:16:07;;;;;;;6.90;3.38;;;9.50;99.90;;;;;;5055660;28;20071;-80
2024/04/01 02:18:33;;;;;;;4.07;2.58;;;9.60;99.90;;;;;;5068353;28;20051;-79
2024/04/01 02:21:00;;;;;;;5.75;3.35;;;9.50;99.90;;;;;;5038187;28;20533;-80
2024/04/01 02:23:31;;;;;;;3.50;2.60;;;9.50;99.90;;;;;;5036876;28;20091;-79
2024/04/01 02:26:01;;;;;;;4.87;2.87;;;9.50;99.90;;;;;;5035447;28;20049;-79
2024/04/01 02:28:31;;;;;;;5.28;2.92;;;9.50;99.90;;;;;;5050469;28;20032;-83
2024/04/01 02:30:58;;;;;;;3.97;2.60;;;9.50;99.90;;;;;;5093255;28;20121;-84
2024/04/01 02:33:25;;;;;;;4.43;2.45;;;9.50;99.90;;;;;;5045058;28;20452;-84
2024/04/01 02:35:51;;;;;;;5.53;2.58;;;9.50;99.90;;;;;;5059421;28;20056;-84
2024/04/01 02:38:18;;;;;;;3.38;2.10;;;9.40;99.90;;;;;;5051470;28;20097;-84
2024/04/01 02:40:45;;;;;;;4.47;2.03;;;9.40;99.90;;;;;;5062802;28;20468;-83
2024/04/01 02:43:11;;;;;;;4.20;2.17;;;9.40;99.90;;;;;;5030362;28;20512;-84
2024/04/01 02:45:37;;;;;;;3.90;2.47;;;9.40;99.90;;;;;;5043996;28;20036;-83
2024/04/01 02:48:03;;;;;;;3.45;2.30;;;9.40;99.90;;;;;;5043263;28;20043;-82
2024/04/01 02:50:29;;;;;;;3.78;2.50;;;9.40;99.90;;;;;;5040395;28;20051;-84
2024/04/01 02:52:55;;;;;;;9.63;3.88;;;9.40;99.90;;;;;;5056617;28;20048;-84
2024/04/01 02:55:22;;;;;;;3.97;2.35;;;9.40;99.90;;;;;;5052129;28;20495;-83
2024/04/01 02:57:48;;;;;;;4.57;2.22;;;9.30;99.90;;;;;;5044059;28;20036;-84
2024/04/01 03:00:16;;;;;;;3.33;2.00;;;9.30;99.90;;;;;;5040242;28;20045;-84
2024/04/01 03:02:46;;;;;;;3.83;2.33;;;9.30;99.90;;;;;;5043222;28;20099;-84
2024/04/01 03:05:13;;;;;;;4.60;2.08;;;9.30;99.90;;;;;;5070295;28;20109;-84
2024/04/01 03:07:40;;;;;;;3.20;2.08;;;9.30;99.90;;;;;;5024656;28;20059;-84
2024/04/01 03:10:08;;;;;;;3.63;2.20;;;9.30;99.90;;;;;;5067104;28;20496;-84
2024/04/01 03:12:34;;;;;;;4.20;2.28;;;9.30;99.90;;;;;;5039620;28;20049;-84
2024/04/01 03:15:00;;;;;;;3.58;2.33;;;9.30;99.90;;;;;;5036330;28;20056;-83
2024/04/01 03:17:29;;;;;;;3.88;1.70;;;9.30;99.90;;;;;;5046851;28;20400;-84
2024/04/01 03:19:56;;;;;;;3.70;2.10;;;9.20;99.90;;;;;;5041236;28;20048;-83
2024/04/01 03:22:23;;;;;;;4.20;2.38;;;9.20;99.90;;;;;;5029632;28;20045;-84
2024/04/01 03:24:49;;;;;;;3.25;1.77;;;9.20;99.90;;;;;;5038129;28;20037;-84
2024/04/01 03:27:15;;;;;;;4.00;2.10;;;9.20;99.90;;;;;;5045082;28;20051;-83
2024/04/01 03:29:41;;;;;;;3.17;1.83;;;9.20;99.90;;;;;;5032887;28;20048;-83
2024/04/01 03:32:07;;;;;;;3.80;2.10;;;9.20;99.90;;;;;;5039240;28;20044;-84
2024/04/01 03:34:33;;;;;;;2.92;1.75;;;9.20;99.90;;;;;;5085451;28;20123;-84
2024/04/01 03:36:59;;;;;;;2.42;1.35;;;9.10;99.90;;;;;;5059090;28;20135;-83
2024/04/01 03:39:27;;;;;;;2.80;1.73;;;9.10;99.90;;;;;;5035971;28;20043;-83
2024/04/01 03:41:54;;;;;;;4.82;2.00;;;9.10;99.90;;;;;;5046122;28;20496;-83
2024/04/01 03:44:21;;;;;;;2.80;1.55;;;9.10;99.90;;;;;;5059644;28;20553;-84
2024/04/01 03:46:47;;;;;;;2.85;1.67;;;9.00;99.90;;;;;;5039478;28;20051;-84
2024/04/01 03:49:13;;;;;;;3.22;2.03;;;9.00;99.90;;;;;;5058468;28;20430;-83
2024/04/01 03:51:39;;;;;;;2.78;1.70;;;9.00;99.90;;;;;;5051062;28;20048;-83
2024/04/01 03:54:05;;;;;;;2.85;1.38;;;9.00;99.90;;;;;;5083182;28;20032;-84
2024/04/01 03:56:31;;;;;;;2.70;1.42;;;9.00;99.90;;;;;;5046915;28;20515;-83
2024/04/01 03:58:57;;;;;;;3.38;1.50;;;9.00;99.90;;;;;;5050176;28;20131;-84
2024/04/01 04:01:23;;;;;;;3.00;1.65;;;9.00;99.90;;;;;;5035739;28;20049;-83
2024/04/01 04:03:49;;;;;;;2.90;1.40;;;9.00;99.90;;;;;;5070222;28;20442;-83
2024/04/01 04:06:15;;;;;;;1.90;1.10;;;9.00;99.90;;;;;;5037086;28;20051;-83
2024/04/01 04:08:47;;;;;;;2.20;1.30;;;9.00;99.90;;;;;;5030473;28;20047;-83
2024/04/01 04:11:13;;;;;;;2.58;1.10;;;9.00;99.90;;;;;;5039393;28;20045;-83
2024/04/01 04:13:40;;;;;;;2.72;1.50;;;9.00;99.90;;;;;;5060972;28;20389;-83
2024/04/01 04:16:06;;;;;;;2.80;1.13;;;9.00;99.90;;;;;;5041894;28;20110;-83
2024/04/01 04:18:32;;;;;;;2.50;0.90;;;9.00;99.90;;;;;;5064366;28;20398;-83
2024/04/01 04:20:58;;;;;;;1.98;1.10;;;9.10;99.90;;;;;;5052802;28;20056;-83
2024/04/01 04:23:25;;;;;;;2.33;1.02;;;9.10;99.90;;;;;;5038770;28;20127;-83
2024/04/01 04:25:51;;;;;;;2.45;1.30;;;9.10;99.90;;;;;;5067093;28;20056;-83
2024/04/01 04:28:18;;;;;;;2.25;1.20;;;9.10;99.90;;;;;;5055778;28;20033;-83
2024/04/01 04:30:44;;;;;;;2.97;1.25;;;9.00;99.90;;;;;;5034923;28;20099;-83
2024/04/01 04:33:10;;;;;;;3.55;1.50;;;9.10;99.90;;;;;;5015701;28;20503;-84
2024/04/01 04:35:36;;;;;;;2.15;1.00;;;9.10;99.90;;;;;;5077430;28;20119;-84
2024/04/01 04:38:02;;;;;;;1.70;1.00;;;9.10;99.90;;;;;;5030661;28;20135;-83
2024/04/01 04:40:29;;;;;;;1.80;0.90;;;9.10;99.90;;;;;;5038451;28;20488;-83
2024/04/01 04:42:55;;;;;;;2.50;1.10;;;9.10;99.90;;;;;;5057809;28;20048;-83
2024/04/01 04:45:24;;;;;;;3.40;1.27;;;9.10;99.90;;;;;;5060681;28;20070;-79
2024/04/01 04:47:50;;;;;;;1.73;0.82;;;9.10;99.90;;;;;;5042290;28;20041;-79
2024/04/01 04:50:20;;;;;;;1.83;0.93;;;9.10;99.90;;;;;;5038968;28;20052;-79
2024/04/01 04:52:46;;;;;;;2.47;1.05;;;9.10;99.90;;;;;;5042169;28;20459;-79
2024/04/01 04:55:12;;;;;;;2.15;1.25;;;9.10;99.90;;;;;;5038912;28;20099;-79
2024/04/01 04:57:38;;;;;;;1.75;0.90;;;9.10;99.90;;;;;;5043706;28;20047;-79
2024/04/01 05:00:20;;;;;;;2.83;1.10;;;9.10;99.90;;;;;;5079812;28;20041;-79
2024/04/01 05:02:48;;;;;;;2.15;1.10;;;9.20;99.90;;;;;;5061006;28;20055;-83
2024/04/01 05:05:20;;;;;;;1.40;0.82;;;9.10;99.90;;;;;;5038659;28;20045;-83
2024/04/01 05:07:48;;;;;;;2.03;0.93;;;9.20;99.90;;;;;;5037279;28;20049;-83
2024/04/01 05:10:15;;;;;;;1.90;0.95;;;9.20;99.90;;;;;;5042170;28;20048;-83
2024/04/01 05:12:42;;;;;;;2.40;0.90;;;9.20;99.90;;;;;;5057717;28;20044;-83
2024/04/01 05:15:09;;;;;;;1.75;0.70;;;9.20;99.90;;;;;;5055212;28;20041;-83
2024/04/01 05:17:38;;;;;;;1.85;0.80;;;9.20;99.90;;;;;;5048557;28;20453;-83
2024/04/01 05:20:05;;;;;;;1.60;0.80;;;9.20;99.90;;;;;;5058415;28;20045;-83
2024/04/01 05:22:31;;;;;;;2.22;0.90;;;9.20;99.90;;;;;;5077917;28;20138;-83
2024/04/01 05:24:57;;;;;;;1.40;0.70;;;9.30;99.90;;;;;;5061861;28;20036;-79
2024/04/01 05:27:24;;;;;;;2.22;1.00;;;9.30;99.90;;;;;;5047586;28;20561;-79
2024/04/01 05:30:09;;;;;;;2.05;0.95;;;9.30;99.90;;;;;;5041612;28;20174;-79
2024/04/01 05:32:36;;;;;;;1.65;0.70;;;9.30;99.90;;;;;;5064377;28;20066;-84
2024/04/01 05:35:05;;;;;;;2.00;1.00;;;9.30;99.90;;;;;;5047439;28;20515;-84
2024/04/01 05:37:34;;;;;;;1.75;0.73;;;9.30;99.90;;;;;;5068668;28;20049;-84
2024/04/01 05:40:00;;;;;;;2.35;1.10;;;9.40;99.90;;;;;;5055349;28;20483;-84
2024/04/01 05:42:27;;;;;;;2.03;1.27;;;9.30;99.90;;;;;;5038420;28;20099;-84
2024/04/01 05:44:53;;;;;;;2.60;1.10;;;9.30;99.90;;;;;;5066393;28;20386;-83
2024/04/01 05:47:19;;;;;;;2.78;1.45;;;9.40;99.90;;;;;;5057867;28;20059;-83
2024/04/01 05:49:45;;;;;;;2.30;1.20;;;9.40;99.90;;;;;;5041401;28;20044;-84
2024/04/01 05:52:11;;;;;;;2.13;1.25;;;9.40;99.90;;;;;;5057992;28;20060;-84
2024/04/01 05:54:37;;;;;;;2.55;1.10;;;9.40;99.90;;;;;;5041592;28;20147;-84
2024/04/01 05:57:03;;;;;;;3.03;1.20;;;9.40;99.90;;;;;;5040564;28;20044;-84
2024/04/01 05:59:29;;;;;;;2.47;1.10;;;9.40;99.90;;;;;;5041071;28;20048;-84
2024/04/01 06:01:56;;;;;;;2.78;1.23;;;9.50;99.90;;;;;;5048311;28;20076;-83
2024/04/01 06:04:23;;;;;;;3.00;1.70;;;9.50;99.90;;;;;;5026337;28;20041;-84
2024/04/01 06:06:50;;;;;;;2.05;0.93;;;9.50;99.90;;;;;;5057459;28;20086;-84
2024/04/01 06:09:16;;;;;;;2.50;1.30;;;9.50;99.90;;;;;;5034201;28;20044;-84
2024/04/01 06:11:42;;;;;;;2.65;1.45;;;9.50;99.90;;;;;;5057567;28;20045;-83
2024/04/01 06:14:09;;;;;;;3.42;1.30;;;9.50;99.90;;;;;;5057461;28;20047;-83
2024/04/01 06:16:36;;;;;;;2.70;1.25;;;9.60;99.90;;;;;;5037562;28;20094;-84
2024/04/01 06:19:02;;;;;;;2.38;1.00;;;9.60;99.90;;;;;;5057395;28;20106;-84
2024/04/01 06:21:28;;;;;;;2.47;1.02;;;9.60;99.90;;;;;;5045703;28;20384;-84
2024/04/01 06:23:54;;;;;;;1.73;1.05;;;9.60;99.90;;;;;;5066195;28;20044;-84
2024/04/01 06:26:21;;;;;;;1.58;1.00;;;9.60;99.90;;;;;;5045527;28;20050;-84
2024/04/01 06:28:50;;;;;;;2.67;1.20;;;9.60;99.90;;;;;;5026099;28;20135;-83
2024/04/01 06:31:17;;;;;;;2.05;0.90;;;9.70;99.90;;;;;;5084767;28;20059;-84
2024/04/01 06:33:43;;;;;;;1.80;1.27;;;9.70;99.90;;;;;;5059441;28;20705;-84
2024/04/01 06:36:12;;;;;;;2.45;0.98;;;9.70;99.90;;;;;;5044372;28;20041;-82
2024/04/01 06:38:39;;;;;;;1.75;0.88;;;9.70;99.90;;;;;;5061098;28;20483;-82
2024/04/01 06:41:06;;;;;;;2.80;0.98;;;9.80;99.90;;;;;;5059818;28;20142;-82
2024/04/01 06:43:32;;;;;;;1.88;0.88;;;9.80;99.90;;;;;;5062259;28;20032;-82
2024/04/01 06:46:00;;;;;;;2.33;0.95;;;9.80;99.90;;;;;;5037304;28;20037;-84
2024/04/01 06:48:27;;;;;;;2.58;1.00;;;9.80;99.90;;;;;;5040041;28;20047;-81
2024/04/01 06:50:53;;;;;;;1.83;1.00;;;9.80;99.90;;;;;;5056176;28;20052;-84
2024/04/01 06:53:20;;;;;;;1.73;0.90;;;9.90;99.90;;;;;;5065946;28;20196;-83
2024/04/01 06:55:47;;;;;;;2.33;1.00;;;9.90;99.90;;;;;;5075519;28;20051;-84
2024/04/01 06:58:14;;;;;;;1.85;0.70;;;9.90;99.90;;;;;;5067792;28;20048;-83
2024/04/01 07:00:41;;;;;;;2.55;1.13;;;10.00;99.90;;;;;;5051948;28;20093;-82
2024/04/01 07:03:07;;;;;;;2.50;0.90;;;10.00;99.90;;;;;;5068729;28;20079;-84
2024/04/01 07:05:34;;;;;;;2.80;0.90;;;10.10;99.90;;;;;;5040264;28;20033;-82
2024/04/01 07:08:01;;;;;;;2.50;0.70;;;10.10;99.90;;;;;;5039309;28;20041;-81
2024/04/01 07:10:27;;;;;;;1.52;0.80;;;10.10;99.90;;;;;;5044939;28;20044;-81
2024/04/01 07:12:54;;;;;;;2.88;1.40;;;10.20;99.90;;;;;;5051739;28;20041;-81
2024/04/01 07:15:20;;;;;;;3.15;1.10;;;10.20;99.90;;;;;;5065810;28;20049;-80
2024/04/01 07:17:46;;;;;;;2.08;0.90;;;10.30;99.90;;;;;;5060301;28;20056;-80
2024/04/01 07:20:15;;;;;;;2.10;0.70;;;10.30;99.90;;;;;;5073345;28;20068;-81
2024/04/01 07:22:41;;;;;;;1.70;0.63;;;10.30;99.90;;;;;;5067270;28;20139;-84
2024/04/01 07:25:07;;;;;;;1.40;0.65;;;10.40;99.90;;;;;;5058520;28;20154;-81
2024/04/01 07:27:34;;;;;;;2.22;0.80;;;10.30;99.90;;;;;;5043567;28;20056;-82
2024/04/01 07:30:02;;;;;;;1.40;0.70;;;10.40;99.90;;;;;;5055874;28;20037;-82
2024/04/01 07:32:29;;;;;;;1.15;0.55;;;10.40;99.90;;;;;;5035966;28;20501;-82
2024/04/01 07:34:56;;;;;;;1.13;0.60;;;10.40;99.90;;;;;;5049486;28;20400;-84
2024/04/01 07:37:22;;;;;;;1.95;0.90;;;10.40;99.90;;;;;;5083065;28;20028;-81
2024/04/01 07:39:48;;;;;;;2.20;0.60;;;10.50;99.90;;;;;;5063952;28;20045;-82
2024/04/01 07:42:15;;;;;;;1.58;0.90;;;10.40;99.90;;;;;;5066937;28;20040;-81
2024/04/01 07:44:41;;;;;;;1.33;0.60;;;10.40;99.90;;;;;;5090065;28;20445;-81
2024/04/01 07:47:08;;;;;;;2.75;0.80;;;10.40;99.90;;;;;;5064401;28;20397;-81
2024/04/01 07:49:34;;;;;;;2.38;0.93;;;10.40;99.90;;;;;;5052517;28;20143;-81
2024/04/01 07:52:03;;;;;;;1.55;0.90;;;10.40;99.90;;;;;;5090920;28;20036;-84
2024/04/01 07:54:29;;;;;;;1.70;0.68;;;10.40;99.90;;;;;;5040903;28;20032;-81
2024/04/01 07:56:57;;;;;;;1.27;0.55;;;10.40;99.90;;;;;;5062827;28;20495;-81
2024/04/01 07:59:26;;;;;;;1.27;0.70;;;10.40;99.90;;;;;;5069972;28;20395;-81
2024/04/01 08:01:52;;;;;;;2.25;0.88;;;10.40;99.90;;;;;;5052102;28;20102;-84
2024/04/01 08:04:18;;;;;;;1.50;0.90;;;10.40;99.90;;;;;;5060801;28;20491;-83
2024/04/01 08:06:45;;;;;;;3.00;1.45;;;10.40;99.90;;;;;;5038700;28;20041;-81
2024/04/01 08:09:11;;;;;;;3.25;1.52;;;10.40;99.90;;;;;;5053664;28;20043;-81
2024/04/01 08:11:36;;;;;;;2.58;1.13;;;10.40;99.90;;;;;;5077944;28;20040;-82
2024/04/01 08:14:03;;;;;;;3.40;1.48;;;10.40;99.90;;;;;;5052693;28;20039;-81
2024/04/01 08:16:29;;;;;;;2.22;1.23;;;10.40;99.90;;;;;;5028902;28;20048;-80
2024/04/01 08:18:54;;;;;;;4.22;1.70;;;10.40;99.90;;;;;;5038888;28;20060;-79
2024/04/01 08:21:20;;;;;;;3.13;1.48;;;10.40;99.90;;;;;;5072755;28;20091;-81
2024/04/01 08:23:46;;;;;;;3.22;1.40;;;10.50;99.90;;;;;;5063712;28;20086;-83
2024/04/01 08:26:12;;;;;;;3.20;1.95;;;10.50;99.90;;;;;;5036892;28;20045;-81
2024/04/01 08:28:38;;;;;;;3.00;1.55;;;10.50;99.90;;;;;;5068593;28;20052;-80
2024/04/01 08:31:06;;;;;;;2.67;1.25;;;10.50;99.90;;;;;;5051876;28;20064;-80
2024/04/01 08:33:32;;;;;;;3.10;1.60;;;10.50;99.90;;;;;;5052420;28;20570;-80
2024/04/01 08:35:58;;;;;;;4.82;2.00;;;10.50;99.90;;;;;;5043392;28;20037;-80
2024/04/01 08:38:24;;;;;;;4.10;2.15;;;10.50;99.90;;;;;;5033025;28;20056;-80
2024/04/01 08:40:55;;;;;;;4.68;2.45;;;10.50;99.90;;;;;;5071579;28;20076;-80
2024/04/01 08:43:38;;;;;;;5.50;2.30;;;10.50;99.90;;;;;;5051551;28;20038;-80
2024/04/01 08:46:05;;;;;;;4.38;2.40;;;10.50;99.90;;;;;;5064255;28;20040;-80
2024/04/01 08:48:31;;;;;;;4.70;2.92;;;10.50;99.90;;;;;;5038348;28;20036;-80
2024/04/01 08:51:05;;;;;;;4.40;3.08;;;10.50;99.90;;;;;;5054654;28;20442;-81
2024/04/01 08:53:49;;;;;;;5.63;3.20;;;10.50;99.90;;;;;;5059854;28;20076;-81
2024/04/01 08:56:17;;;;;;;5.15;3.20;;;10.50;99.90;;;;;;5031963;28;20052;-82
2024/04/01 08:58:45;;;;;;;5.57;3.25;;;10.50;99.90;;;;;;5038622;28;20416;-82
2024/04/01 09:01:12;;;;;;;5.93;3.30;;;10.50;99.90;;;;;;5037953;28;20485;-80
2024/04/01 09:03:38;;;;;;;5.70;2.95;;;10.50;99.90;;;;;;5036404;28;20533;-80
2024/04/01 09:06:04;;;;;;;5.70;3.85;;;10.50;99.90;;;;;;5036496;28;20420;-80
2024/04/01 09:08:31;;;;;;;5.88;3.47;;;10.40;99.90;;;;;;5043471;28;20048;-84
2024/04/01 09:10:57;;;;;;;6.72;3.88;;;10.40;99.90;;;;;;5055747;28;20519;-86
2024/04/01 09:13:23;;;;;;;5.20;3.53;;;10.40;99.90;;;;;;5041223;28;20043;-81
2024/04/01 09:15:50;;;;;;;6.43;3.10;;;10.40;99.90;;;;;;5035246;28;20056;-81
2024/04/01 09:18:16;;;;;;;6.05;3.58;;;10.40;99.90;;;;;;5067981;28;20123;-81
2024/04/01 09:20:44;;;;;;;6.05;3.65;;;10.50;99.90;;;;;;5071271;28;20484;-83
2024/04/01 09:23:11;;;;;;;7.93;4.72;;;10.50;99.90;;;;;;5038822;28;20049;-82
2024/04/01 09:25:37;;;;;;;5.88;4.05;;;10.50;99.90;;;;;;5028249;28;20063;-85
2024/04/01 09:28:03;;;;;;;6.55;5.03;;;10.50;99.90;;;;;;5042143;28;20041;-83
2024/04/01 09:30:30;;;;;;;7.25;5.28;;;10.50;99.90;;;;;;5068456;28;20071;-83
2024/04/01 09:32:56;;;;;;;7.38;4.88;;;10.60;99.90;;;;;;5039823;28;20086;-83
2024/04/01 09:35:26;;;;;;;7.88;5.47;;;10.60;99.90;;;;;;5058032;28;20068;-83
2024/04/01 09:37:53;;;;;;;7.10;5.07;;;10.60;99.90;;;;;;5043038;28;20493;-83
2024/04/01 09:40:19;;;;;;;6.22;4.95;;;10.60;99.90;;;;;;5042351;28;20056;-82
2024/04/01 09:42:46;;;;;;;8.10;5.30;;;10.60;99.90;;;;;;5041722;28;20048;-82
2024/04/01 09:45:12;;;;;;;6.35;5.20;;;10.60;99.90;;;;;;5063701;28;20098;-86
2024/04/01 09:47:40;;;;;;;6.25;4.47;;;10.50;99.90;;;;;;5041923;28;20040;-86
2024/04/01 09:50:07;;;;;;;6.00;4.03;;;10.40;99.90;;;;;;5051912;28;20075;-88
2024/04/01 09:52:34;;;;;;;6.85;4.65;;;10.40;99.90;;;;;;5043950;28;20089;-87
2024/04/01 09:55:12;;;;;;;5.70;4.07;;;10.40;99.90;;;;;;5068600;28;20044;-91
2024/04/01 09:57:51;;;;;;;6.45;4.10;;;10.50;99.90;;;;;;5050720;28;20040;-91
2024/04/01 10:00:19;;;;;;;7.15;4.63;;;10.60;99.90;;;;;;5058922;28;20060;-89
2024/04/01 10:02:51;;;;;;;6.28;4.70;;;10.60;99.90;;;;;;5044863;28;20029;-90
2024/04/01 10:05:23;;;;;;;;;;;10.60;99.90;;;;;;5068583;28;20040;-90
2024/04/01 10:08:25;;;;;;;5.95;3.25;;;10.60;99.90;;;;;;5061730;28;19919;-89
2024/04/01 10:11:28;;;;;;;5.97;4.23;;;10.70;99.90;;;;;;5053181;28;20044;-88
2024/04/01 10:14:36;;;;;;;6.47;5.07;;;10.70;99.90;;;;;;5053369;28;20274;-89
2024/04/01 10:17:24;;;;;;;7.60;5.50;;;10.70;99.90;;;;;;5070832;28;20044;-91
2024/04/01 10:20:15;;;;;;;6.88;4.72;;;10.80;99.90;;;;;;5069032;28;20047;-95
2024/04/01 10:23:07;;;;;;;6.30;4.35;;;10.70;99.90;;;;;;5076496;28;20066;-94
2024/04/01 10:26:07;;;;;;;8.32;5.88;;;10.80;99.90;;;;;;5039966;28;20132;-94
2024/04/01 10:28:54;;;;;;;7.60;5.60;;;10.80;99.90;;;;;;5042005;28;20227;-95
2024/04/01 10:31:41;;;;;;;6.57;4.97;;;10.80;99.90;;;;;;5060167;28;20080;-94
2024/04/01 10:34:38;;;;;;;6.85;4.75;;;10.80;99.90;;;;;;5068487;28;20468;-92
2024/04/01 10:37:35;;;;;;;7.68;5.35;;;10.90;99.90;;;;;;5062447;28;20481;-89
2024/04/01 10:40:07;;;;;;;6.97;4.40;;;10.90;99.90;;;;;;5039205;28;20108;-90
2024/04/01 10:43:12;;;;;;;7.13;5.33;;;10.90;99.90;;;;;;5060512;28;20135;-90
2024/04/01 10:46:15;;;;;;;7.70;4.80;;;11.00;99.90;;;;;;5075240;28;20480;-94
2024/04/01 10:49:03;;;;;;;6.85;4.53;;;11.00;99.90;;;;;;5043309;28;20040;-84
2024/04/01 10:52:14;;;;;;;6.03;4.53;;;11.10;99.90;;;;;;5040783;28;20098;-85
2024/04/01 10:55:00;;;;;;;5.38;4.00;;;11.10;99.90;;;;;;5058615;28;20044;-83
2024/04/01 10:57:41;;;;;;;6.28;3.47;;;11.20;99.90;;;;;;5057466;28;20098;-83
2024/04/01 11:00:41;;;;;;;9.27;5.45;;;11.20;99.90;;;;;;5040157;28;20044;-83
2024/04/01 11:03:10;;;;;;;5.43;4.15;;;11.20;99.90;;;;;;5056549;28;20097;-80
2024/04/01 11:06:19;;;;;;;6.60;5.00;;;11.30;99.90;;;;;;5056483;28;20416;-79
2024/04/01 11:09:12;;;;;;;7.97;5.05;;;11.30;99.90;;;;;;5065299;28;20044;-79
2024/04/01 11:11:47;;;;;;;9.25;6.07;;;11.30;99.90;;;;;;5063917;28;20114;-78
2024/04/01 11:14:16;;;;;;;8.63;5.60;;;11.40;99.90;;;;;;5062747;28;20048;-78
2024/04/01 11:16:49;;;;;;;8.18;5.60;;;11.40;99.90;;;;;;5062954;28;20484;-78
2024/04/01 11:19:30;;;;;;;10.73;5.60;;;11.40;99.90;;;;;;5039574;28;20057;-78
2024/04/01 11:22:03;;;;;;;7.13;6.00;;;11.50;99.90;;;;;;5053505;28;20511;-77
2024/04/01 11:24:43;;;;;;;9.30;6.43;;;11.50;99.90;;;;;;5058400;28;20044;-78
2024/04/01 11:27:18;;;;;;;10.27;6.82;;;11.40;99.90;;;;;;5062872;28;20057;-77
2024/04/01 11:30:13;;;;;;;9.48;7.28;;;11.40;99.90;;;;;;5049812;28;20080;-78
2024/04/01 11:32:45;;;;;;;8.27;6.70;;;11.40;99.90;;;;;;5023837;28;20377;-78
2024/04/01 11:35:45;;;;;;;13.73;8.20;;;11.30;99.90;;;;;;5055974;28;20044;-78
2024/04/01 11:38:29;;;;;;;11.70;7.43;;;11.30;99.90;;;;;;5055953;28;20508;-77
2024/04/01 11:40:58;;;;;;;12.00;8.15;;;11.30;99.90;;;;;;5039054;28;20041;-77
2024/04/01 11:43:27;;;;;;;11.07;8.10;;;11.30;99.90;;;;;;5035572;28;20123;-77
2024/04/01 11:45:56;;;;;;;9.80;7.57;;;11.30;99.90;;;;;;5041530;28;20492;-78
2024/04/01 11:48:23;;;;;;;9.20;7.13;;;11.30;99.90;;;;;;5067995;28;20035;-78
2024/04/01 11:50:54;;;;;;;9.18;6.38;;;11.30;99.90;;;;;;5057175;28;20496;-77
2024/04/01 11:53:24;;;;;;;7.60;5.47;;;11.30;99.90;;;;;;5055369;28;20068;-77
2024/04/01 11:55:56;;;;;;;7.82;5.28;;;11.40;99.90;;;;;;5050609;28;20446;-77
2024/04/01 11:58:22;;;;;;;9.50;5.28;;;11.50;99.90;;;;;;5043990;28;20044;-77
2024/04/01 12:01:04;;;;;;;4.80;3.72;;;11.60;99.90;;;;;;5074772;28;20037;-77
2024/04/01 12:03:42;;;;;;;7.70;4.22;;;11.80;99.90;;;;;;5081649;28;20056;-77
2024/04/01 12:06:14;;;;;;;7.95;4.68;;;12.00;99.90;;;;;;5038682;28;20076;-77
2024/04/01 12:08:42;;;;;;;8.02;4.35;;;12.00;99.90;;;;;;5072028;28;20029;-78
2024/04/01 12:11:08;;;;;;;7.40;3.97;;;12.00;99.90;;;;;;5059177;28;20040;-77
2024/04/01 12:13:40;;;;;;;6.93;3.60;;;12.10;99.90;;;;;;5064963;28;20488;-77
2024/04/01 12:16:08;;;;;;;7.65;3.67;;;12.20;99.90;;;;;;5083821;28;20048;-77
2024/04/01 12:18:48;;;;;;;9.38;3.60;;;12.30;99.90;;;;;;5047660;28;20055;-77
2024/04/01 12:21:22;;;;;;;4.15;2.80;;;12.30;99.90;;;;;;5076219;28;20108;-77
2024/04/01 12:23:50;;;;;;;7.32;3.10;;;12.40;99.90;;;;;;5072533;28;20041;-77
2024/04/01 12:26:17;;;;;;;7.80;2.92;;;12.40;99.90;;;;;;5025535;28;20028;-77
2024/04/01 12:28:46;;;;;;;4.88;2.42;;;12.50;99.90;;;;;;5042653;28;20040;-77
2024/04/01 12:31:15;;;;;;;6.07;1.98;;;12.60;99.90;;;;;;5034726;28;20063;-77
2024/04/01 12:33:42;;;;;;;7.53;2.30;;;12.80;99.90;;;;;;5076353;28;20113;-77
2024/04/01 12:36:09;;;;;;;4.35;1.85;;;13.00;99.90;;;;;;5082067;28;20041;-81
2024/04/01 12:38:45;;;;;;;6.88;2.10;;;13.10;99.90;;;;;;5070469;28;20048;-76
2024/04/01 12:41:19;;;;;;;4.50;1.60;;;13.30;99.70;;;;;;5053329;28;20126;-77
2024/04/01 12:43:46;;;;;;;5.60;1.70;;;13.30;99.00;;;;;;5065803;28;20036;-77
2024/04/01 12:46:14;;;;;;;5.45;1.52;;;13.30;98.40;;;;;;5045663;28;20040;-78
2024/04/01 12:48:40;;;;;;;5.43;1.98;;;13.30;98.60;;;;;;5071670;28;20036;-77
2024/04/01 12:51:07;;;;;;;4.65;2.00;;;13.30;98.00;;;;;;5062560;28;20036;-78
2024/04/01 12:54:11;;;;;;;5.40;1.95;;;13.20;97.50;;;;;;5067886;28;20059;-77
2024/04/01 12:56:43;;;;;;;6.70;2.30;;;13.10;97.70;;;;;;5061649;28;20048;-76
2024/04/01 12:59:34;;;;;;;5.22;1.90;;;13.10;97.40;;;;;;5068695;28;20404;-77
2024/04/01 13:02:18;;;;;;;4.05;2.63;;;13.10;97.30;;;;;;5047318;28;20045;-78
2024/04/01 13:04:57;;;;;;;3.47;2.17;;;13.10;96.70;;;;;;5046151;28;20044;-77
2024/04/01 13:07:49;;;;;;;5.45;2.40;;;13.20;96.90;;;;;;5074958;28;20055;-77